Time;durP1;ratioP1;P1;durP2;ratioP2;P2;SDS_P1;SDS_P2;PMS_P1;PMS_P2;Temp;Humidity;BMP_temperature;BMP_pressure;BME280_temperature;BME280_humidity;BME280_pressure;Samples;Min_cycle;Max_cycle;Signal;HPM_P1;HPM_P2
2021/05/13 00:00:09;;;;;;;15.70;12.80;;;;;;;17.86;64.35;98693.69;4358981;32;33956;-84
2021/05/13 00:02:40;;;;;;;16.35;13.25;;;;;;;17.88;64.18;98697.09;4358724;32;34214;-84
2021/05/13 00:05:08;;;;;;;14.63;13.10;;;;;;;17.86;63.98;98689.28;4346747;33;33984;-84
2021/05/13 00:07:36;;;;;;;14.52;12.98;;;;;;;17.97;63.81;98687.00;4359020;32;34429;-84
2021/05/13 00:10:09;;;;;;;14.73;13.00;;;;;;;18.02;63.72;98673.63;4346772;33;33920;-84
2021/05/13 00:12:50;;;;;;;13.52;12.10;;;;;;;18.12;63.66;98686.28;4346562;33;34357;-84
2021/05/13 00:15:21;;;;;;;14.32;12.82;;;;;;;18.13;63.58;98676.63;4357788;32;33747;-84
2021/05/13 00:17:50;;;;;;;14.80;13.30;;;;;;;17.83;64.10;98668.41;4358957;32;34386;-84
2021/05/13 00:20:22;;;;;;;13.75;12.35;;;;;;;17.95;63.90;98670.44;4346537;33;34165;-84
2021/05/13 00:22:50;;;;;;;13.50;11.73;;;;;;;17.86;64.20;98670.03;4358750;32;33358;-84
2021/05/13 00:25:18;;;;;;;14.75;12.55;;;;;;;17.95;64.02;98667.81;4358768;32;33795;-84
2021/05/13 00:27:47;;;;;;;14.60;13.05;;;;;;;18.12;63.60;98669.63;4346495;33;35172;-84
2021/05/13 00:30:15;;;;;;;14.60;13.10;;;;;;;18.16;63.48;98669.41;4358581;32;34187;-84
2021/05/13 00:32:43;;;;;;;14.70;13.07;;;;;;;17.83;64.10;98665.75;4360339;32;34575;-84
2021/05/13 00:35:17;;;;;;;14.90;12.65;;;;;;;17.97;63.74;98662.50;4349807;33;34528;-84
2021/05/13 00:37:45;;;;;;;14.73;13.23;;;;;;;17.97;63.76;98657.25;4360661;32;35200;-84
2021/05/13 00:40:14;;;;;;;17.05;13.50;;;;;;;17.98;63.65;98661.56;4348397;33;33945;-84
2021/05/13 00:42:42;;;;;;;14.70;13.00;;;;;;;18.05;63.68;98658.56;4349454;33;33667;-84
2021/05/13 00:45:12;;;;;;;14.95;13.48;;;;;;;18.03;63.58;98660.41;4360686;32;33766;-84
2021/05/13 00:50:24;;;;;;;17.17;13.07;;;;;;;17.93;64.00;98653.03;4348520;33;33873;-84
2021/05/13 00:52:52;;;;;;;15.57;13.98;;;;;;;17.97;63.86;98650.19;4348408;33;33602;-83
2021/05/13 00:55:20;;;;;;;14.93;13.43;;;;;;;18.02;63.86;98652.59;4348425;33;33749;-84
2021/05/13 00:57:51;;;;;;;14.07;12.68;;;;;;;17.99;64.01;98637.81;4360714;32;34679;-83
2021/05/13 01:03:04;;;;;;;13.30;11.90;;;;;;;17.74;64.04;98637.28;4349430;33;33931;-83
2021/05/13 01:05:33;;;;;;;13.65;12.23;;;;;;;17.80;63.77;98631.75;4349377;33;35131;-84
2021/05/13 01:08:02;;;;;;;13.45;12.05;;;;;;;17.63;64.07;98623.78;4360564;32;34201;-84
2021/05/13 01:10:30;;;;;;;14.80;12.65;;;;;;;17.83;63.38;98631.56;4360597;32;34088;-85
2021/05/13 01:13:02;;;;;;;13.88;12.45;;;;;;;17.89;63.45;98625.19;4348399;33;33332;-84
2021/05/13 01:15:41;;;;;;;14.45;12.95;;;;;;;17.74;64.02;98620.63;4349350;33;34143;-84
2021/05/13 01:18:18;;;;;;;18.60;13.02;;;;;;;17.73;63.96;98611.06;4360316;32;34756;-84
2021/05/13 01:20:47;;;;;;;14.25;12.75;;;;;;;17.86;63.47;98623.53;4348439;33;34632;-84
2021/05/13 01:23:15;;;;;;;14.63;13.07;;;;;;;17.68;63.96;98610.44;4348291;33;33362;-84
2021/05/13 01:25:46;;;;;;;14.32;12.65;;;;;;;17.45;64.55;98611.44;4348100;33;33883;-84
2021/05/13 01:28:16;;;;;;;14.32;12.88;;;;;;;17.45;64.60;98608.81;4349443;33;34429;-84
2021/05/13 01:30:44;;;;;;;15.77;14.07;;;;;;;17.34;64.71;98605.84;4335976;33;33695;-84
2021/05/13 01:33:13;;;;;;;14.95;13.40;;;;;;;17.52;64.24;98599.75;4348227;33;33462;-84
2021/05/13 01:35:41;;;;;;;14.32;12.93;;;;;;;17.41;64.44;98591.50;4360441;32;34024;-84
2021/05/13 01:38:11;;;;;;;16.27;13.55;;;;;;;17.55;64.30;98594.38;4348361;32;34472;-84
2021/05/13 01:40:39;;;;;;;15.38;13.77;;;;;;;17.13;65.12;98589.31;4360436;32;33561;-84
2021/05/13 01:43:07;;;;;;;14.70;13.30;;;;;;;17.23;64.69;98582.72;4347704;33;33354;-84
2021/05/13 01:45:35;;;;;;;15.38;13.77;;;;;;;17.36;64.42;98593.50;4360513;32;33922;-84
2021/05/13 01:48:03;;;;;;;14.73;13.23;;;;;;;17.35;64.58;98571.59;4349165;33;34671;-84
2021/05/13 01:50:39;;;;;;;14.18;12.75;;;;;;;17.31;64.39;98572.69;4348063;33;35337;-85
2021/05/13 01:53:07;;;;;;;14.57;12.93;;;;;;;17.18;64.86;98568.06;4348177;33;34622;-84
2021/05/13 01:55:36;;;;;;;15.57;12.73;;;;;;;17.05;65.08;98569.53;4360247;32;34309;-84
2021/05/13 01:58:03;;;;;;;13.30;11.82;;;;;;;17.13;64.98;98570.06;4348219;33;34184;-84
2021/05/13 02:00:33;;;;;;;13.18;11.82;;;;;;;17.15;64.69;98563.81;4360349;32;35229;-84
2021/05/13 02:03:01;;;;;;;13.48;11.73;;;;;;;17.33;64.50;98564.75;4348045;33;33398;-84
2021/05/13 02:05:29;;;;;;;12.13;11.00;;;;;;;17.28;64.29;98564.09;4348089;33;34244;-84
2021/05/13 02:07:56;;;;;;;12.27;11.07;;;;;;;17.39;63.92;98567.06;4348117;33;35718;-84
2021/05/13 02:10:24;;;;;;;12.63;11.32;;;;;;;17.32;63.95;98563.03;4359969;32;33920;-83
2021/05/13 02:12:55;;;;;;;11.85;10.65;;;;;;;17.24;64.23;98560.75;4360211;32;34762;-83
2021/05/13 02:15:23;;;;;;;11.40;10.30;;;;;;;17.32;63.62;98555.16;4348729;32;33946;-85
2021/05/13 02:17:54;;;;;;;11.02;9.95;;;;;;;17.17;63.99;98564.59;4360300;32;35807;-84
2021/05/13 02:20:23;;;;;;;10.57;9.52;;;;;;;17.08;64.25;98564.16;4348197;33;34058;-84
2021/05/13 02:22:51;;;;;;;10.20;9.20;;;;;;;16.83;64.47;98565.25;4360309;32;33289;-84
2021/05/13 02:25:20;;;;;;;10.90;9.80;;;;;;;17.03;64.28;98560.87;4348492;33;33348;-85
2021/05/13 02:27:47;;;;;;;10.80;9.23;;;;;;;16.78;64.87;98554.09;4336002;33;34004;-85
2021/05/13 02:30:15;;;;;;;9.40;8.50;;;;;;;16.60;65.01;98554.06;4360387;32;33943;-85
2021/05/13 02:32:43;;;;;;;10.50;9.40;;;;;;;16.70;64.65;98551.00;4348065;33;32921;-85
2021/05/13 02:35:12;;;;;;;9.77;8.82;;;;;;;16.79;64.51;98560.22;4348324;33;33619;-85
2021/05/13 02:37:41;;;;;;;9.40;7.82;;;;;;;16.55;64.93;98562.16;4349387;33;34625;-85
2021/05/13 02:40:10;;;;;;;9.48;8.57;;;;;;;16.76;64.63;98561.19;4348221;33;34626;-85
2021/05/13 02:42:39;;;;;;;12.60;8.38;;;;;;;16.78;64.52;98559.34;4360370;32;33668;-85
2021/05/13 02:45:08;;;;;;;9.68;8.70;;;;;;;16.62;64.84;98553.09;4348305;32;33997;-85
2021/05/13 02:47:36;;;;;;;11.65;8.60;;;;;;;16.74;64.42;98556.94;4348073;33;33831;-85
2021/05/13 02:50:06;;;;;;;10.02;9.02;;;;;;;16.76;64.39;98545.44;4348026;33;33943;-86
2021/05/13 02:52:33;;;;;;;9.75;8.77;;;;;;;16.42;65.45;98555.72;4348314;33;34680;-85
2021/05/13 02:55:02;;;;;;;9.55;8.57;;;;;;;16.55;65.13;98549.03;4359393;32;34660;-85
2021/05/13 02:57:30;;;;;;;10.85;8.85;;;;;;;16.73;64.90;98550.00;4360262;32;34407;-85
2021/05/13 03:00:14;;;;;;;10.65;8.27;;;;;;;16.84;64.66;98555.63;4347976;33;34728;-85
2021/05/13 03:02:43;;;;;;;10.10;9.10;;;;;;;16.96;64.40;98552.44;4358705;32;33348;-85
2021/05/13 03:05:11;;;;;;;9.88;8.35;;;;;;;17.14;63.84;98556.00;4348046;33;35238;-85
2021/05/13 03:07:50;;;;;;;9.50;8.38;;;;;;;17.10;63.93;98559.69;4347997;32;33732;-85
2021/05/13 03:10:22;;;;;;;9.25;8.27;;;;;;;16.97;64.12;98554.16;4358941;32;34789;-85
2021/05/13 03:12:52;;;;;;;9.43;8.48;;;;;;;16.98;64.17;98549.72;4348971;33;33245;-85
2021/05/13 03:15:20;;;;;;;10.35;8.70;;;;;;;17.01;63.85;98555.72;4348148;33;33850;-85
2021/05/13 03:17:50;;;;;;;9.95;8.20;;;;;;;17.11;63.42;98541.25;4347771;33;35203;-85
2021/05/13 03:20:21;;;;;;;9.45;7.93;;;;;;;17.11;62.93;98553.50;4360077;32;33944;-85
2021/05/13 03:22:53;;;;;;;10.43;8.48;;;;;;;16.96;63.47;98549.81;4348004;32;34054;-85
2021/05/13 03:25:27;;;;;;;9.15;8.23;;;;;;;16.99;63.07;98549.69;4348761;33;34000;-85
2021/05/13 03:28:06;;;;;;;9.57;7.60;;;;;;;16.89;63.72;98551.88;4359175;32;35737;-86
2021/05/13 03:30:36;;;;;;;8.90;7.68;;;;;;;16.74;63.60;98547.28;4348759;33;34118;-85
2021/05/13 03:33:05;;;;;;;10.63;8.98;;;;;;;16.81;63.25;98551.34;4347877;33;34138;-85
2021/05/13 03:35:34;;;;;;;8.18;7.28;;;;;;;16.89;63.58;98548.38;4359554;32;33822;-85
2021/05/13 03:38:03;;;;;;;9.07;7.90;;;;;;;16.79;63.36;98545.31;4347592;33;34407;-85
2021/05/13 03:40:31;;;;;;;9.68;7.85;;;;;;;16.80;63.64;98546.19;4347229;33;33918;-85
2021/05/13 03:43:00;;;;;;;9.52;8.07;;;;;;;16.86;63.67;98548.50;4347478;33;33227;-85
2021/05/13 03:45:28;;;;;;;12.20;7.85;;;;;;;16.74;63.38;98547.28;4359620;32;34620;-85
2021/05/13 03:47:56;;;;;;;11.02;7.57;;;;;;;16.78;63.49;98554.09;4359618;32;35262;-85
2021/05/13 03:50:23;;;;;;;9.55;7.32;;;;;;;16.66;63.80;98543.31;4359475;32;34675;-85
2021/05/13 03:52:51;;;;;;;8.63;7.72;;;;;;;16.81;63.51;98553.97;4348513;33;34710;-85
2021/05/13 03:55:19;;;;;;;10.50;8.52;;;;;;;16.62;63.92;98547.84;4359594;32;34134;-85
2021/05/13 03:57:46;;;;;;;10.23;7.57;;;;;;;16.73;63.86;98553.47;4347243;33;34339;-85
2021/05/13 04:00:15;;;;;;;8.75;7.65;;;;;;;16.67;63.76;98556.38;4359461;32;34314;-85
2021/05/13 04:02:43;;;;;;;9.07;7.75;;;;;;;16.74;63.81;98551.69;4347091;33;33349;-85
2021/05/13 04:05:12;;;;;;;8.85;7.03;;;;;;;16.47;64.17;98556.38;4359920;32;33779;-85
2021/05/13 04:07:39;;;;;;;9.20;6.95;;;;;;;16.51;63.48;98560.59;4350227;33;35897;-85
2021/05/13 04:10:08;;;;;;;8.65;7.10;;;;;;;16.55;64.03;98551.66;4361191;32;34739;-85
2021/05/13 04:12:39;;;;;;;9.18;7.15;;;;;;;16.52;64.29;98556.19;4349052;32;33137;-85
2021/05/13 04:15:09;;;;;;;9.32;7.22;;;;;;;16.54;64.10;98562.22;4349207;33;34498;-85
2021/05/13 04:17:37;;;;;;;7.97;7.12;;;;;;;16.66;63.61;98557.28;4349002;33;34444;-85
2021/05/13 04:20:06;;;;;;;9.75;7.18;;;;;;;16.62;63.85;98562.72;4361380;32;33440;-85
2021/05/13 04:22:35;;;;;;;8.05;7.22;;;;;;;16.66;63.73;98559.06;4361353;32;33310;-85
2021/05/13 04:25:04;;;;;;;8.27;6.82;;;;;;;16.61;63.89;98571.53;4348994;33;34585;-85
2021/05/13 04:27:31;;;;;;;8.13;7.18;;;;;;;16.64;63.76;98555.66;4337048;33;34061;-85
2021/05/13 04:29:59;;;;;;;9.80;7.00;;;;;;;16.70;63.77;98565.88;4348976;33;34003;-86
2021/05/13 04:32:27;;;;;;;10.32;6.53;;;;;;;16.60;64.09;98565.44;4349019;33;34001;-85
2021/05/13 04:34:54;;;;;;;11.45;7.87;;;;;;;16.79;63.99;98566.31;4348949;33;34083;-85
2021/05/13 04:37:22;;;;;;;8.60;7.20;;;;;;;16.89;63.66;98567.63;4349296;32;33882;-85
2021/05/13 04:39:50;;;;;;;7.90;6.07;;;;;;;16.75;64.16;98567.41;4361169;32;33777;-85
2021/05/13 04:42:18;;;;;;;8.50;6.90;;;;;;;16.88;63.81;98565.91;4349135;33;33461;-85
2021/05/13 04:44:46;;;;;;;9.38;6.55;;;;;;;16.89;63.64;98572.88;4350053;33;34805;-85
2021/05/13 04:47:25;;;;;;;8.43;7.10;;;;;;;16.91;63.58;98563.16;4350045;33;34383;-85
2021/05/13 04:49:54;;;;;;;7.72;6.62;;;;;;;16.80;64.04;98557.53;4348998;33;34774;-85
2021/05/13 04:52:24;;;;;;;9.80;6.87;;;;;;;17.03;63.30;98556.50;4348750;33;33223;-85
2021/05/13 04:54:53;;;;;;;7.43;6.62;;;;;;;17.00;62.95;98553.16;4360952;32;33834;-85
2021/05/13 04:57:22;;;;;;;8.20;6.20;;;;;;;17.10;63.17;98550.03;4361059;32;35696;-85
2021/05/13 04:59:50;;;;;;;8.55;7.43;;;;;;;17.03;63.29;98558.25;4344523;32;34352;-85
2021/05/13 05:02:17;;;;;;;7.55;6.70;;;;;;;17.17;62.85;98543.56;4347473;33;34497;-85
2021/05/13 05:04:45;;;;;;;8.93;6.55;;;;;;;17.13;63.29;98541.16;4359974;32;34716;-85
2021/05/13 05:07:15;;;;;;;7.90;7.00;;;;;;;17.15;63.17;98549.81;4347941;33;35762;-86
2021/05/13 05:09:42;;;;;;;9.18;6.68;;;;;;;17.12;63.52;98545.56;4360557;32;34762;-85
2021/05/13 05:12:14;;;;;;;10.00;7.22;;;;;;;17.14;63.44;98542.88;4349531;32;34033;-86
2021/05/13 05:14:42;;;;;;;7.37;6.57;;;;;;;17.01;63.13;98552.22;4371893;32;33964;-85
2021/05/13 05:17:09;;;;;;;9.25;6.22;;;;;;;17.02;63.28;98546.88;4346152;33;35402;-84
2021/05/13 05:19:38;;;;;;;7.57;6.37;;;;;;;17.13;63.25;98543.78;4372176;32;35247;-83
2021/05/13 05:22:06;;;;;;;8.48;6.70;;;;;;;17.00;63.67;98553.16;4348270;32;32687;-83
2021/05/13 05:24:34;;;;;;;10.13;7.03;;;;;;;17.03;63.72;98553.84;4372394;32;33783;-83
2021/05/13 05:27:02;;;;;;;7.28;6.43;;;;;;;17.07;63.50;98557.22;4348214;32;34631;-84
2021/05/13 05:29:30;;;;;;;9.07;7.10;;;;;;;17.23;63.26;98553.81;4349278;33;35322;-84
2021/05/13 05:31:58;;;;;;;9.32;6.22;;;;;;;17.28;63.32;98556.22;4360450;32;33154;-83
2021/05/13 05:34:26;;;;;;;7.15;5.80;;;;;;;17.15;63.27;98557.69;4360406;32;34653;-84
2021/05/13 05:36:54;;;;;;;7.70;6.15;;;;;;;17.28;62.63;98548.34;4360682;32;34364;-84
2021/05/13 05:39:22;;;;;;;9.77;6.35;;;;;;;17.25;62.69;98549.34;4360489;32;34093;-83
2021/05/13 05:41:52;;;;;;;10.48;6.45;;;;;;;17.24;63.00;98554.63;4360622;32;33201;-84
2021/05/13 05:44:20;;;;;;;9.65;6.60;;;;;;;17.14;63.57;98548.94;4349676;33;33326;-83
2021/05/13 05:46:48;;;;;;;8.02;7.20;;;;;;;17.22;63.60;98548.59;4348524;33;35303;-83
2021/05/13 05:49:17;;;;;;;7.30;5.97;;;;;;;17.23;63.60;98545.94;4360345;32;34130;-84
2021/05/13 05:51:46;;;;;;;7.62;5.97;;;;;;;17.37;63.17;98554.00;4348249;32;34551;-83
2021/05/13 05:54:14;;;;;;;8.50;5.40;;;;;;;17.45;63.41;98554.47;4360383;32;33871;-84
2021/05/13 05:56:42;;;;;;;6.85;5.47;;;;;;;17.35;63.34;98555.84;4349365;33;34420;-84
2021/05/13 05:59:09;;;;;;;9.00;4.72;;;;;;;17.05;63.24;98548.53;4348031;32;34411;-84
2021/05/13 06:01:38;;;;;;;7.85;4.80;;;;;;;17.10;63.25;98555.28;4360480;32;32818;-84
2021/05/13 06:04:08;;;;;;;7.80;5.62;;;;;;;17.24;63.25;98552.00;4360284;32;33297;-84
2021/05/13 06:06:37;;;;;;;6.62;5.05;;;;;;;17.23;63.80;98547.69;4348282;32;35138;-83
2021/05/13 06:09:09;;;;;;;5.00;3.87;;;;;;;17.32;63.82;98553.37;4360073;32;33359;-84
2021/05/13 06:11:38;;;;;;;8.43;4.57;;;;;;;17.08;63.78;98558.91;4360401;32;33520;-84
2021/05/13 06:14:05;;;;;;;4.80;3.92;;;;;;;17.18;63.88;98552.31;4360370;32;35379;-83
2021/05/13 06:16:34;;;;;;;4.18;3.78;;;;;;;17.29;63.54;98550.88;4360147;32;33534;-84
2021/05/13 06:19:05;;;;;;;5.78;4.53;;;;;;;17.48;63.10;98558.75;4349174;33;35343;-83
2021/05/13 06:21:38;;;;;;;6.65;4.72;;;;;;;17.51;62.86;98550.72;4360130;32;33513;-83
2021/05/13 06:24:11;;;;;;;7.47;4.82;;;;;;;17.38;63.35;98546.97;4348907;33;33135;-85
2021/05/13 06:26:40;;;;;;;5.97;4.40;;;;;;;17.52;63.20;98552.44;4348040;33;35167;-85
2021/05/13 06:29:08;;;;;;;5.57;4.62;;;;;;;17.72;62.77;98554.13;4346839;33;34590;-84
2021/05/13 06:31:37;;;;;;;7.40;4.80;;;;;;;17.65;63.11;98561.47;4347677;33;33418;-84
2021/05/13 06:34:06;;;;;;;6.32;5.15;;;;;;;17.68;63.02;98557.84;4347622;33;33237;-84
2021/05/13 06:36:34;;;;;;;9.23;5.85;;;;;;;17.77;62.91;98555.63;4347810;32;34159;-83
2021/05/13 06:39:17;;;;;;;6.25;5.65;;;;;;;17.90;62.41;98559.34;4337208;33;32601;-84
2021/05/13 06:41:47;;;;;;;8.15;5.62;;;;;;;17.87;62.64;98556.88;4335377;33;32653;-84
2021/05/13 06:44:16;;;;;;;6.43;5.55;;;;;;;17.84;62.35;98557.03;4359865;32;33071;-82
2021/05/13 06:46:45;;;;;;;7.78;5.32;;;;;;;17.78;62.86;98557.28;4347226;32;34276;-84
2021/05/13 06:49:14;;;;;;;7.82;5.10;;;;;;;17.94;62.30;98550.38;4355340;32;34076;-84
2021/05/13 06:51:46;;;;;;;5.82;4.25;;;;;;;17.94;62.53;98554.78;4334422;33;33121;-84
2021/05/13 06:54:14;;;;;;;5.57;3.45;;;;;;;17.88;62.69;98553.31;4372479;32;33258;-84
2021/05/13 06:56:43;;;;;;;4.55;3.42;;;;;;;17.92;62.45;98559.28;4359449;32;33470;-83
2021/05/13 06:59:11;;;;;;;3.10;2.80;;;;;;;17.92;62.16;98562.75;4372237;32;35234;-84
2021/05/13 07:01:44;;;;;;;4.20;3.08;;;;;;;17.97;62.32;98557.28;4347950;33;33534;-83
2021/05/13 07:04:13;;;;;;;3.22;2.80;;;;;;;17.79;62.53;98555.53;4347010;32;33202;-83
2021/05/13 07:06:42;;;;;;;5.20;3.25;;;;;;;17.84;62.33;98553.53;4337816;33;33682;-83
2021/05/13 07:09:10;;;;;;;3.50;3.20;;;;;;;17.96;62.70;98560.81;4359368;32;33470;-83
2021/05/13 07:11:38;;;;;;;5.03;2.78;;;;;;;18.13;62.00;98553.81;4358941;32;32799;-83
2021/05/13 07:14:06;;;;;;;4.68;3.55;;;;;;;18.07;62.43;98548.84;4340053;33;35417;-83
2021/05/13 07:16:35;;;;;;;5.68;3.10;;;;;;;17.96;62.55;98547.66;4359000;32;35341;-83
2021/05/13 07:19:04;;;;;;;4.47;3.10;;;;;;;18.21;61.97;98543.72;4358315;32;34013;-83
2021/05/13 07:21:33;;;;;;;5.28;3.25;;;;;;;18.22;61.94;98547.22;4358781;32;33512;-83
2021/05/13 07:24:02;;;;;;;3.83;3.35;;;;;;;17.99;62.31;98544.87;4358607;32;33702;-83
2021/05/13 07:26:30;;;;;;;3.40;3.05;;;;;;;18.13;62.42;98545.06;4346970;32;33877;-83
2021/05/13 07:29:00;;;;;;;4.03;3.10;;;;;;;18.26;61.78;98541.72;4356978;32;33037;-83
2021/05/13 07:31:30;;;;;;;3.33;2.75;;;;;;;17.90;62.73;98543.53;4346322;33;32701;-83
2021/05/13 07:33:58;;;;;;;5.18;3.22;;;;;;;18.05;62.67;98540.16;4358247;32;34796;-83
2021/05/13 07:36:28;;;;;;;4.35;2.75;;;;;;;18.44;61.66;98542.56;4358894;32;35798;-83
2021/05/13 07:38:57;;;;;;;4.78;2.97;;;;;;;18.35;61.74;98542.19;4334513;33;33983;-82
2021/05/13 07:41:28;;;;;;;3.87;2.70;;;;;;;18.50;61.52;98538.78;4357760;32;33494;-83
2021/05/13 07:43:57;;;;;;;6.18;3.22;;;;;;;18.43;61.58;98532.94;4347422;33;34843;-83
2021/05/13 07:46:33;;;;;;;6.12;3.30;;;;;;;18.70;60.93;98533.34;4358509;32;35008;-83
2021/05/13 07:49:03;;;;;;;5.22;3.50;;;;;;;18.76;60.71;98531.22;4334819;33;33482;-82
2021/05/13 07:51:33;;;;;;;4.12;2.90;;;;;;;18.52;62.18;98535.13;4358343;32;33645;-83
2021/05/13 07:54:03;;;;;;;3.42;3.10;;;;;;;18.61;61.84;98531.19;4357933;32;33538;-82
2021/05/13 07:56:30;;;;;;;3.30;3.00;;;;;;;18.63;62.12;98537.22;4341908;33;35029;-83
2021/05/13 07:58:58;;;;;;;4.97;3.17;;;;;;;18.83;61.11;98535.22;4358219;32;33933;-82
2021/05/13 08:01:26;;;;;;;4.90;3.40;;;;;;;18.78;61.04;98531.13;4346196;33;33125;-83
2021/05/13 08:03:56;;;;;;;4.00;3.42;;;;;;;18.79;61.40;98530.22;4358508;32;32619;-83
2021/05/13 08:06:24;;;;;;;4.12;2.70;;;;;;;18.99;60.39;98527.38;4346283;33;34139;-83
2021/05/13 08:08:53;;;;;;;6.60;3.00;;;;;;;18.91;60.83;98533.03;4347178;33;33874;-83
2021/05/13 08:11:22;;;;;;;6.35;3.15;;;;;;;18.67;61.57;98530.84;4358458;32;32346;-83
2021/05/13 08:13:49;;;;;;;3.62;2.75;;;;;;;18.81;61.15;98528.34;4355690;32;33398;-83
2021/05/13 08:16:18;;;;;;;3.28;2.55;;;;;;;18.83;60.71;98537.00;4321611;33;34249;-83
2021/05/13 08:18:47;;;;;;;3.58;2.67;;;;;;;18.96;60.63;98540.69;4358279;32;33387;-83
2021/05/13 08:21:15;;;;;;;3.87;3.20;;;;;;;19.03;61.20;98536.81;4358024;32;33057;-83
2021/05/13 08:23:44;;;;;;;4.25;2.95;;;;;;;19.00;60.53;98538.72;4357668;32;33667;-83
2021/05/13 08:26:14;;;;;;;6.03;2.65;;;;;;;19.01;60.96;98541.31;4370855;32;33860;-82
2021/05/13 08:28:43;;;;;;;4.35;2.62;;;;;;;18.76;61.25;98535.63;4370350;32;33185;-83
2021/05/13 08:31:12;;;;;;;3.92;2.15;;;;;;;18.91;61.03;98534.81;4351852;32;33161;-82
2021/05/13 08:33:43;;;;;;;3.55;2.05;;;;;;;18.87;60.76;98538.56;4345806;33;34051;-83
2021/05/13 08:36:12;;;;;;;2.70;2.30;;;;;;;18.95;60.74;98538.97;4345699;33;33757;-83
2021/05/13 08:38:40;;;;;;;3.80;2.45;;;;;;;18.78;61.32;98537.25;4358014;32;33948;-82
2021/05/13 08:41:10;;;;;;;2.95;1.95;;;;;;;18.58;62.66;98540.09;4357359;32;32995;-82
2021/05/13 08:43:42;;;;;;;1.70;1.60;;;;;;;18.67;61.90;98542.25;4346409;33;33381;-83
2021/05/13 08:46:18;;;;;;;1.87;1.33;;;;;;;18.96;60.95;98543.34;4357269;32;34689;-83
2021/05/13 08:48:49;;;;;;;1.37;1.02;;;;;;;18.97;60.14;98542.38;4345290;33;34187;-83
2021/05/13 08:51:18;;;;;;;1.73;1.20;;;;;;;19.02;60.18;98543.00;4357765;32;34203;-83
2021/05/13 08:53:48;;;;;;;1.80;1.02;;;;;;;18.92;60.63;98540.00;4347237;33;33574;-83
2021/05/13 08:56:17;;;;;;;1.27;0.80;;;;;;;18.94;60.13;98550.47;4347796;32;33619;-83
2021/05/13 08:58:46;;;;;;;2.20;1.27;;;;;;;19.27;58.59;98542.53;4360026;32;34232;-83
2021/05/13 09:01:21;;;;;;;1.35;1.15;;;;;;;19.33;59.00;98542.16;4329886;33;32747;-82
2021/05/13 09:03:53;;;;;;;2.50;1.08;;;;;;;19.40;59.18;98538.28;4360021;32;32977;-83
2021/05/13 09:06:32;;;;;;;3.00;1.23;;;;;;;19.08;59.84;98532.13;4359385;32;34730;-82
2021/05/13 09:09:21;;;;;;;1.67;1.02;;;;;;;19.41;58.16;98546.13;4333470;33;32869;-82
2021/05/13 09:11:57;;;;;;;;;;;;;;;19.50;58.73;98542.12;4347548;32;32424;-83
2021/05/13 09:14:31;;;;;;;3.47;1.30;;;;;;;19.58;58.42;98543.41;4359873;32;34355;-82
2021/05/13 09:17:00;;;;;;;1.55;1.45;;;;;;;19.60;58.86;98545.94;4359485;32;34635;-82
2021/05/13 09:19:34;;;;;;;2.70;1.15;;;;;;;19.65;58.28;98549.19;4348599;33;34692;-82
2021/05/13 09:22:07;;;;;;;2.08;1.55;;;;;;;19.34;58.61;98552.66;4347939;32;33601;-82
2021/05/13 09:24:52;;;;;;;1.90;1.40;;;;;;;19.20;58.59;98541.16;4347748;32;33936;-82
2021/05/13 09:27:44;;;;;;;1.87;1.25;;;;;;;18.87;59.07;98554.38;4354074;32;33992;-82
2021/05/13 09:30:25;;;;;;;2.45;1.50;;;;;;;19.00;59.56;98544.87;4359102;32;36049;-82
2021/05/13 09:32:59;;;;;;;3.20;1.48;;;;;;;19.15;59.90;98544.03;4348044;33;34013;-82
2021/05/13 09:35:31;;;;;;;1.83;1.60;;;;;;;19.18;59.74;98543.03;4335460;33;33935;-82
2021/05/13 09:38:04;;;;;;;2.45;1.95;;;;;;;18.86;60.12;98547.38;4372062;32;36195;-83
2021/05/13 09:40:50;;;;;;;1.60;1.42;;;;;;;18.96;59.24;98547.75;4359291;32;33192;-82
2021/05/13 09:43:24;;;;;;;3.25;1.50;;;;;;;18.71;61.57;98546.41;4335660;33;32394;-82
2021/05/13 09:45:57;;;;;;;1.40;1.20;;;;;;;18.68;60.27;98545.75;4346752;33;34093;-82
2021/05/13 09:48:38;;;;;;;1.90;1.27;;;;;;;18.99;60.13;98545.81;4359102;32;34501;-82
2021/05/13 09:51:36;;;;;;;1.75;1.40;;;;;;;19.02;59.48;98542.16;4359708;32;34708;-82
2021/05/13 09:54:15;;;;;;;2.45;1.08;;;;;;;18.98;60.83;98543.25;4334454;33;34305;-82
2021/05/13 09:56:52;;;;;;;1.50;1.00;;;;;;;18.96;59.18;98535.44;4346943;33;32918;-82
2021/05/13 09:59:31;;;;;;;1.87;1.25;;;;;;;18.58;59.39;98539.25;4358974;32;34710;-82
2021/05/13 10:02:07;;;;;;;1.33;1.10;;;;;;;18.30;60.62;98552.09;4358941;32;35298;-81
2021/05/13 10:04:36;;;;;;;1.80;1.40;;;;;;;18.68;60.01;98538.69;4334792;33;31982;-81
2021/05/13 10:07:06;;;;;;;1.10;0.93;;;;;;;18.61;60.64;98534.66;4370928;32;33466;-82
2021/05/13 10:09:34;;;;;;;3.25;1.30;;;;;;;18.80;60.45;98537.19;4347624;33;35653;-81
2021/05/13 10:12:23;;;;;;;1.62;1.08;;;;;;;18.98;59.60;98538.84;4356573;32;34373;-81
2021/05/13 10:14:53;;;;;;;2.17;1.00;;;;;;;19.01;59.76;98541.31;4358597;32;32783;-81
2021/05/13 10:17:22;;;;;;;1.50;0.98;;;;;;;19.11;59.45;98537.22;4346389;33;33397;-81
2021/05/13 10:19:55;;;;;;;1.42;1.20;;;;;;;19.07;59.80;98533.06;4353903;32;35700;-81
2021/05/13 10:22:24;;;;;;;1.98;1.10;;;;;;;18.95;60.09;98536.34;4346520;33;34598;-81
2021/05/13 10:25:28;;;;;;;2.53;1.00;;;;;;;18.98;60.42;98541.47;4358495;32;33224;-81
2021/05/13 10:27:58;;;;;;;2.20;1.00;;;;;;;19.32;59.10;98535.22;4346577;32;33811;-81
2021/05/13 10:30:34;;;;;;;1.73;1.23;;;;;;;19.09;59.69;98525.91;4339853;33;34502;-83
2021/05/13 10:33:17;;;;;;;2.17;0.95;;;;;;;19.04;59.61;98538.47;4345427;33;34522;-83
2021/05/13 10:36:24;;;;;;;0.68;0.52;;;;;;;18.72;59.91;98539.38;4357795;32;32586;-83
2021/05/13 10:38:54;;;;;;;3.25;0.65;;;;;;;18.31;61.24;98548.50;4347417;32;34392;-83
2021/05/13 10:41:30;;;;;;;1.12;0.57;;;;;;;18.37;60.85;98542.97;4358477;32;34126;-82
2021/05/13 10:44:12;;;;;;;0.70;0.37;;;;;;;18.37;60.21;98542.97;4357940;32;33052;-82
2021/05/13 10:46:56;;;;;;;1.42;0.40;;;;;;;18.48;60.25;98545.91;4346164;33;31985;-81
2021/05/13 10:49:27;;;;;;;0.40;0.40;;;;;;;18.34;60.20;98548.38;4341789;33;34855;-82
2021/05/13 10:52:29;;;;;;;1.20;0.60;;;;;;;18.44;60.08;98539.94;4358849;32;35045;-81
2021/05/13 10:54:57;;;;;;;1.73;0.57;;;;;;;18.50;60.22;98538.78;4346756;33;33344;-81
2021/05/13 10:57:25;;;;;;;2.65;0.43;;;;;;;18.77;59.98;98529.44;4340949;33;34461;-81
2021/05/13 11:00:08;;;;;;;1.77;0.50;;;;;;;18.71;59.63;98532.38;4346305;33;32494;-81
2021/05/13 11:02:45;;;;;;;3.28;0.60;;;;;;;18.99;59.44;98532.63;4359001;32;34052;-82
2021/05/13 11:05:28;;;;;;;3.00;0.60;;;;;;;19.09;59.13;98523.28;4358253;32;34234;-83
2021/05/13 11:08:24;;;;;;;0.50;0.50;;;;;;;18.69;60.66;98534.25;4358578;32;32231;-82
2021/05/13 11:11:00;;;;;;;1.23;0.68;;;;;;;18.90;59.33;98538.37;4346842;33;33257;-82
2021/05/13 11:13:44;;;;;;;1.10;0.70;;;;;;;18.95;59.19;98533.72;4334076;33;33018;-82
2021/05/13 11:16:48;;;;;;;2.10;0.68;;;;;;;19.03;58.86;98528.91;4357839;32;33942;-80
2021/05/13 11:19:24;;;;;;;0.95;0.57;;;;;;;19.00;59.19;98526.41;4334450;33;32831;-81
2021/05/13 11:22:15;;;;;;;0.40;0.40;;;;;;;19.07;59.07;98529.56;4358218;32;35061;-81
2021/05/13 11:24:44;;;;;;;1.98;0.73;;;;;;;19.12;58.98;98525.75;4358298;32;35704;-82
2021/05/13 11:27:12;;;;;;;2.05;0.68;;;;;;;19.04;59.35;98530.56;4346183;32;34556;-82
2021/05/13 11:29:50;;;;;;;0.80;0.55;;;;;;;19.17;59.09;98526.34;4347488;33;34191;-82
2021/05/13 11:32:21;;;;;;;2.92;1.30;;;;;;;19.22;59.27;98524.31;4365630;32;34166;-81
2021/05/13 11:34:51;;;;;;;2.12;1.20;;;;;;;19.07;59.81;98530.41;4343944;33;35478;-82
2021/05/13 11:37:34;;;;;;;2.58;0.90;;;;;;;18.76;60.98;98530.34;4346221;33;32821;-82
2021/05/13 11:40:20;;;;;;;1.52;1.10;;;;;;;19.04;59.63;98530.56;4358098;32;33507;-81
2021/05/13 11:42:50;;;;;;;2.25;1.00;;;;;;;19.04;60.38;98532.38;4358710;32;33834;-81
2021/05/13 11:45:22;;;;;;;1.02;0.85;;;;;;;18.98;60.96;98533.56;4346124;33;33923;-81
2021/05/13 11:47:50;;;;;;;0.77;0.77;;;;;;;19.10;59.75;98534.69;4334675;33;33290;-81
2021/05/13 11:50:28;;;;;;;1.20;0.85;;;;;;;19.21;60.04;98529.66;4358413;32;33567;-81
2021/05/13 11:53:04;;;;;;;2.03;0.70;;;;;;;19.45;59.27;98530.97;4347179;33;33383;-81